createdAt,value
2022-12-19T00:02:08.200Z,67.08
2022-12-19T00:04:37.095Z,67.23
2022-12-19T00:07:05.830Z,66.47
2022-12-19T00:09:34.825Z,67.26
2022-12-19T00:12:04.946Z,66.93
2022-12-19T00:14:35.236Z,67.73
2022-12-19T00:17:04.062Z,66.82
2022-12-19T00:19:32.856Z,66.25
2022-12-19T00:22:01.535Z,67.47
2022-12-19T00:24:30.650Z,68.17
2022-12-19T00:26:59.655Z,68.19
2022-12-19T00:29:32.704Z,68.67
2022-12-19T00:32:04.407Z,67.23
2022-12-19T00:34:33.299Z,67.71
2022-12-19T00:37:04.009Z,68.06
2022-12-19T00:39:32.920Z,67.53
2022-12-19T00:42:01.642Z,67.32
2022-12-19T00:44:30.367Z,68.25
2022-12-19T00:47:00.517Z,68.17
2022-12-19T00:49:30.644Z,66.92
2022-12-19T00:52:00.596Z,66.63
2022-12-19T00:54:29.367Z,67.10
2022-12-19T00:57:01.637Z,67.39
2022-12-19T00:59:30.472Z,68.21
2022-12-19T01:01:59.678Z,67.60
2022-12-19T01:04:29.809Z,67.64
2022-12-19T01:07:02.399Z,67.49
2022-12-19T01:09:37.270Z,66.44
2022-12-19T01:12:25.147Z,65.62
2022-12-19T01:15:04.215Z,66.04
2022-12-19T01:17:44.363Z,65.27
2022-12-19T01:20:16.593Z,64.26
2022-12-19T01:22:48.417Z,65.13
2022-12-19T01:25:17.272Z,65.97
2022-12-19T01:27:46.108Z,66.65
2022-12-19T01:30:15.528Z,65.02
2022-12-19T01:32:45.743Z,65.60
2022-12-19T01:35:18.860Z,66.80
2022-12-19T01:37:52.250Z,68.19
2022-12-19T01:40:31.672Z,66.82
2022-12-19T01:43:00.575Z,65.06
2022-12-19T01:45:34.682Z,63.83
2022-12-19T01:48:21.800Z,64.72
2022-12-19T01:51:01.827Z,65.70
2022-12-19T01:53:49.029Z,68.31
2022-12-19T01:56:21.066Z,66.18
2022-12-19T01:58:56.091Z,66.07
2022-12-19T02:01:49.545Z,66.39
2022-12-19T02:04:25.685Z,65.88
2022-12-19T02:06:59.166Z,68.69
2022-12-19T02:09:35.457Z,68.63
2022-12-19T02:12:05.127Z,68.16
2022-12-19T02:14:38.665Z,68.25
2022-12-19T02:17:17.972Z,66.44
2022-12-19T02:20:16.604Z,66.18
2022-12-19T02:23:00.096Z,65.61
2022-12-19T02:25:50.207Z,65.43
2022-12-19T02:28:36.460Z,66.57
2022-12-19T02:31:16.782Z,66.20
2022-12-19T02:33:56.960Z,65.27
2022-12-19T02:36:38.931Z,64.88
2022-12-19T02:39:13.231Z,66.44
2022-12-19T02:41:49.421Z,65.41
2022-12-19T02:44:26.828Z,65.36
2022-12-19T02:46:59.879Z,64.02
2022-12-19T02:49:31.355Z,63.48
2022-12-19T02:52:10.943Z,63.33
2022-12-19T02:54:42.347Z,62.52
2022-12-19T02:57:21.471Z,62.73
2022-12-19T03:00:05.137Z,63.44
2022-12-19T03:02:53.836Z,62.89
2022-12-19T03:05:41.485Z,63.19
2022-12-19T03:08:21.660Z,62.16
2022-12-19T03:10:57.792Z,62.62
2022-12-19T03:13:31.633Z,61.95
2022-12-19T03:16:03.206Z,61.12
2022-12-19T03:18:35.772Z,61.93
2022-12-19T03:21:12.941Z,61.96
2022-12-19T03:23:42.594Z,61.89
2022-12-19T03:26:16.906Z,61.73
2022-12-19T03:28:51.997Z,62.64
2022-12-19T03:31:24.396Z,62.73
2022-12-19T03:34:00.121Z,63.10
2022-12-19T03:36:32.727Z,63.21
2022-12-19T03:39:05.878Z,62.83
2022-12-19T03:41:56.981Z,62.32
2022-12-19T03:44:29.910Z,62.37
2022-12-19T03:47:05.929Z,62.82
2022-12-19T03:49:37.595Z,63.04
2022-12-19T03:52:18.313Z,63.16
2022-12-19T03:54:52.303Z,62.48
2022-12-19T03:57:26.468Z,62.54
2022-12-19T04:00:01.909Z,63.55
2022-12-19T04:02:44.907Z,62.99
2022-12-19T04:05:19.288Z,63.04
2022-12-19T04:07:49.622Z,63.65
2022-12-19T04:10:22.406Z,63.60
2022-12-19T04:12:58.607Z,63.80
2022-12-19T04:15:37.397Z,64.14
2022-12-19T04:18:09.059Z,64.37
2022-12-19T04:20:42.604Z,63.69
2022-12-19T04:23:19.115Z,63.62
2022-12-19T04:25:51.791Z,63.30
2022-12-19T04:28:27.143Z,64.09
2022-12-19T04:30:59.937Z,63.98
2022-12-19T04:33:29.184Z,64.23
2022-12-19T04:35:59.750Z,63.64
2022-12-19T04:38:28.840Z,63.39
2022-12-19T04:40:57.811Z,63.16
2022-12-19T04:43:26.805Z,62.47
2022-12-19T04:45:57.379Z,63.53
2022-12-19T04:48:31.589Z,63.90
2022-12-19T04:51:01.987Z,63.73
2022-12-19T04:53:31.106Z,63.88
2022-12-19T04:56:03.354Z,64.31
2022-12-19T04:58:32.475Z,64.52
2022-12-19T05:01:03.348Z,64.72
2022-12-19T05:03:32.962Z,65.00
2022-12-19T05:06:10.817Z,64.45
2022-12-19T05:08:42.674Z,63.64
2022-12-19T05:11:17.483Z,63.23
2022-12-19T05:13:50.211Z,63.72
2022-12-19T05:16:19.715Z,63.95
2022-12-19T05:18:48.889Z,63.85
2022-12-19T05:21:19.091Z,63.96
2022-12-19T05:23:47.766Z,63.10
2022-12-19T05:26:17.534Z,63.08
2022-12-19T05:28:46.313Z,62.31
2022-12-19T05:31:17.805Z,62.95
2022-12-19T05:33:46.908Z,63.02
2022-12-19T05:36:17.593Z,62.98
2022-12-19T05:38:48.518Z,63.19
2022-12-19T05:41:19.176Z,63.51
2022-12-19T05:43:51.459Z,63.56
2022-12-19T05:46:21.057Z,63.02
2022-12-19T05:48:50.685Z,62.37
2022-12-19T05:51:21.107Z,62.47
2022-12-19T05:53:51.879Z,63.02
2022-12-19T05:56:23.247Z,63.52
2022-12-19T05:58:52.392Z,63.69
2022-12-19T06:01:23.718Z,63.62
2022-12-19T06:03:53.134Z,64.05
2022-12-19T06:06:24.048Z,63.39
2022-12-19T06:08:56.835Z,63.55
2022-12-19T06:11:26.303Z,63.14
2022-12-19T06:13:55.514Z,62.99
2022-12-19T06:16:25.007Z,62.61
2022-12-19T06:18:54.062Z,62.99
2022-12-19T06:21:25.343Z,64.06
2022-12-19T06:23:56.077Z,63.49
2022-12-19T06:26:24.788Z,62.32
2022-12-19T06:28:53.543Z,63.05
2022-12-19T06:31:24.681Z,63.18
2022-12-19T06:33:54.580Z,62.98
2022-12-19T06:36:25.522Z,61.96
2022-12-19T06:38:58.056Z,62.56
2022-12-19T06:41:44.932Z,62.50
2022-12-19T06:44:15.866Z,62.72
2022-12-19T06:46:45.010Z,61.83
2022-12-19T06:49:14.033Z,63.20
2022-12-19T06:51:43.399Z,65.16
2022-12-19T06:54:14.130Z,65.18
2022-12-19T06:56:45.024Z,64.47
2022-12-19T06:59:16.959Z,64.31
2022-12-19T07:01:57.165Z,64.66
2022-12-19T07:04:34.979Z,63.95
2022-12-19T07:07:04.229Z,63.29
2022-12-19T07:09:35.315Z,61.86
2022-12-19T07:12:04.517Z,63.65
2022-12-19T07:14:33.939Z,63.02
2022-12-19T07:17:04.531Z,65.45
2022-12-19T07:19:34.378Z,64.84
2022-12-19T07:22:05.226Z,63.54
2022-12-19T07:24:37.504Z,62.85
2022-12-19T07:27:06.548Z,61.64
2022-12-19T07:29:35.001Z,60.96
2022-12-19T07:32:03.349Z,61.60
2022-12-19T07:34:32.539Z,60.89
2022-12-19T07:37:14.196Z,61.20
2022-12-19T07:40:27.817Z,60.89
2022-12-19T07:42:56.467Z,61.38
2022-12-19T07:45:25.063Z,60.66
2022-12-19T07:47:55.161Z,61.32
2022-12-19T07:50:24.592Z,60.83
2022-12-19T07:52:59.073Z,60.78
2022-12-19T07:55:29.695Z,62.96
2022-12-19T07:57:58.256Z,64.43
2022-12-19T08:00:26.870Z,66.43
2022-12-19T08:02:55.099Z,66.17
2022-12-19T08:05:23.594Z,65.37
2022-12-19T08:07:51.969Z,63.35
2022-12-19T08:10:22.727Z,64.08
2022-12-19T08:12:55.180Z,64.43
2022-12-19T08:15:23.804Z,63.95
2022-12-19T08:17:55.568Z,64.34
2022-12-19T08:20:24.377Z,63.18
2022-12-19T08:22:53.175Z,62.20
2022-12-19T08:25:22.022Z,63.56
2022-12-19T08:27:51.050Z,62.47
2022-12-19T08:30:21.577Z,63.28
2022-12-19T08:32:50.850Z,62.21
2022-12-19T08:35:20.002Z,62.58
2022-12-19T08:37:48.981Z,61.69
2022-12-19T08:40:17.747Z,60.42
2022-12-19T08:42:46.453Z,60.98
2022-12-19T08:45:15.255Z,60.38
2022-12-19T08:47:46.255Z,61.31
2022-12-19T08:50:15.345Z,62.29
2022-12-19T08:52:44.379Z,61.37
2022-12-19T08:55:13.320Z,61.92
2022-12-19T08:57:41.895Z,61.02
2022-12-19T09:00:12.251Z,60.20
2022-12-19T09:02:41.883Z,60.03
2022-12-19T09:06:00.740Z,59.36
2022-12-19T09:08:04.638Z,59.43
2022-12-19T09:10:33.488Z,58.85
2022-12-19T09:13:02.467Z,59.34
2022-12-19T09:15:31.698Z,61.34
2022-12-19T09:18:00.489Z,62.36
2022-12-19T09:20:31.344Z,61.96
2022-12-19T09:23:00.555Z,61.04
2022-12-19T09:25:29.128Z,61.26
2022-12-19T09:28:26.345Z,62.60
2022-12-19T09:30:46.822Z,61.45
2022-12-19T09:33:16.209Z,62.47
2022-12-19T09:35:53.042Z,62.42
2022-12-19T09:38:25.757Z,62.44
2022-12-19T09:41:06.379Z,64.31
2022-12-19T09:43:56.220Z,63.67
2022-12-19T09:46:36.493Z,62.29
2022-12-19T09:49:17.215Z,63.19
2022-12-19T09:51:54.436Z,63.30
2022-12-19T09:54:29.164Z,63.01
2022-12-19T09:57:02.905Z,62.98
2022-12-19T09:59:41.495Z,62.29
2022-12-19T10:02:26.968Z,63.09
2022-12-19T10:05:16.825Z,63.44
2022-12-19T10:08:08.425Z,62.73
2022-12-19T10:12:45.730Z,64.91
2022-12-19T10:13:56.314Z,63.77
2022-12-19T10:16:37.139Z,63.47
2022-12-19T10:19:08.551Z,63.05
2022-12-19T10:25:09.262Z,64.66
2022-12-19T10:27:59.486Z,63.31
2022-12-19T10:30:32.216Z,63.53
2022-12-19T10:33:20.151Z,64.07
2022-12-19T10:35:54.328Z,63.87
2022-12-19T10:38:28.619Z,63.43
2022-12-19T10:41:16.479Z,62.91
2022-12-19T10:43:55.762Z,66.46
2022-12-19T10:46:37.458Z,66.80
2022-12-19T10:49:14.777Z,67.10
2022-12-19T10:51:44.183Z,66.05
2022-12-19T10:54:13.278Z,65.82
2022-12-19T10:56:44.002Z,66.47
2022-12-19T10:59:18.437Z,66.67
2022-12-19T11:02:00.490Z,65.70
2022-12-19T11:04:34.674Z,64.47
2022-12-19T11:07:24.687Z,64.91
2022-12-19T11:09:58.161Z,63.81
2022-12-19T11:16:43.873Z,63.97
2022-12-19T11:19:40.751Z,64.97
2022-12-19T11:27:48.711Z,65.62
2022-12-19T11:29:37.686Z,64.32
2022-12-19T11:29:40.576Z,64.43
2022-12-19T11:30:25.641Z,64.99
2022-12-19T11:33:20.426Z,63.86
2022-12-19T11:35:51.037Z,66.01
2022-12-19T11:38:28.131Z,64.83
2022-12-19T11:40:59.807Z,68.79
2022-12-19T11:43:46.171Z,66.87
2022-12-19T11:46:26.734Z,65.92
2022-12-19T11:49:01.059Z,67.56
2022-12-19T11:51:36.107Z,67.13
2022-12-19T11:54:13.915Z,65.55
2022-12-19T11:56:42.539Z,64.38
2022-12-19T11:59:14.289Z,66.31
2022-12-19T12:02:30.371Z,67.53
2022-12-19T12:05:26.788Z,68.27
2022-12-19T12:09:30.369Z,67.60
2022-12-19T12:15:49.723Z,66.00
2022-12-19T12:21:01.027Z,66.87
2022-12-19T12:29:27.608Z,67.84
2022-12-19T12:31:10.130Z,68.76
2022-12-19T12:31:40.357Z,67.25
2022-12-19T12:31:58.648Z,68.17
2022-12-19T12:32:00.728Z,67.24
2022-12-19T12:35:46.912Z,69.52
2022-12-19T12:38:39.259Z,68.34
2022-12-19T12:41:50.966Z,71.12
2022-12-19T12:44:33.114Z,69.84
2022-12-19T12:47:08.316Z,70.07
2022-12-19T12:49:41.501Z,70.01
2022-12-19T12:52:18.577Z,69.28
2022-12-19T12:54:50.040Z,69.30
2022-12-19T12:57:36.412Z,68.29
2022-12-19T13:00:25.030Z,69.97
2022-12-19T13:02:58.363Z,69.12
2022-12-19T13:05:56.153Z,69.55
2022-12-19T13:08:36.048Z,69.03
2022-12-19T13:11:07.732Z,70.13
2022-12-19T13:13:58.267Z,71.18
2022-12-19T13:16:53.230Z,70.77
2022-12-19T13:19:28.738Z,69.28
2022-12-19T13:22:34.011Z,68.75
2022-12-19T13:25:04.000Z,70.36
2022-12-19T13:27:39.857Z,68.09
2022-12-19T13:30:20.220Z,67.82
2022-12-19T13:33:09.562Z,68.47
2022-12-19T13:37:10.209Z,67.86
2022-12-19T13:39:50.024Z,67.07
2022-12-19T13:41:58.366Z,66.38
2022-12-19T13:44:27.894Z,69.04
2022-12-19T13:46:57.443Z,69.17
2022-12-19T13:49:33.244Z,66.65
2022-12-19T13:52:04.518Z,64.29
2022-12-19T13:54:38.919Z,64.64
2022-12-19T13:57:23.554Z,67.64
2022-12-19T14:00:00.165Z,67.64
2022-12-19T14:02:44.080Z,67.79
2022-12-19T14:05:44.482Z,66.48
2022-12-19T14:08:21.825Z,66.75
2022-12-19T14:11:33.485Z,66.00
2022-12-19T14:14:18.954Z,66.27
2022-12-19T14:16:50.709Z,66.65
2022-12-19T14:19:22.785Z,65.44
2022-12-19T14:22:04.875Z,64.23
2022-12-19T14:24:40.967Z,64.43
2022-12-19T14:28:24.712Z,63.06
2022-12-19T14:30:29.164Z,64.40
2022-12-19T14:33:40.605Z,65.11
2022-12-19T14:36:07.956Z,66.15
2022-12-19T14:39:23.220Z,67.61
2022-12-19T14:42:02.317Z,67.55
2022-12-19T14:53:17.581Z,67.18
2022-12-19T14:54:00.766Z,67.23
2022-12-19T14:54:15.828Z,67.11
2022-12-19T14:54:29.543Z,65.69
2022-12-19T14:56:53.846Z,64.71
2022-12-19T14:59:03.886Z,64.91
2022-12-19T15:01:36.565Z,65.66
2022-12-19T15:04:51.682Z,65.35
2022-12-19T15:07:07.384Z,65.83
2022-12-19T15:11:03.268Z,65.99
2022-12-19T15:14:47.504Z,65.27
2022-12-19T15:16:00.651Z,64.87
2022-12-19T15:18:40.387Z,65.50
2022-12-19T15:21:12.905Z,64.84
2022-12-19T15:23:45.184Z,63.83
2022-12-19T15:26:15.697Z,64.44
2022-12-19T15:28:47.832Z,65.02
2022-12-19T15:31:27.178Z,66.39
2022-12-19T15:36:46.260Z,64.59
2022-12-19T15:39:15.840Z,64.35
2022-12-19T15:41:46.093Z,64.67
2022-12-19T15:44:18.981Z,65.06
2022-12-19T15:46:50.972Z,63.90
2022-12-19T15:49:21.369Z,63.69
2022-12-19T15:51:51.655Z,63.03
2022-12-19T15:57:23.861Z,63.90
2022-12-19T15:59:53.147Z,64.90
2022-12-19T16:02:24.560Z,65.24
2022-12-19T16:05:01.561Z,64.29
2022-12-19T16:07:34.332Z,64.01
2022-12-19T16:10:03.353Z,64.43
2022-12-19T16:12:36.982Z,63.26
2022-12-19T16:15:08.772Z,63.85
2022-12-19T16:17:38.549Z,62.06
2022-12-19T16:20:17.015Z,62.03
2022-12-19T16:22:49.808Z,62.00
2022-12-19T16:25:23.748Z,62.77
2022-12-19T16:27:57.638Z,63.32
2022-12-19T16:30:29.248Z,61.83
2022-12-19T16:32:58.657Z,61.51
2022-12-19T16:38:21.454Z,63.85
2022-12-19T16:40:51.609Z,63.63
2022-12-19T16:43:27.626Z,63.19
2022-12-19T16:46:00.806Z,63.86
2022-12-19T16:48:31.528Z,64.34
2022-12-19T16:51:03.159Z,64.51
2022-12-19T16:53:33.144Z,63.50
2022-12-19T16:56:02.343Z,68.01
2022-12-19T16:58:31.167Z,66.46
2022-12-19T17:00:59.646Z,65.76
2022-12-19T17:03:33.749Z,65.93
2022-12-19T17:06:02.888Z,66.28
2022-12-19T17:08:32.966Z,66.28
2022-12-19T17:11:01.510Z,67.15
2022-12-19T17:13:30.523Z,67.60
2022-12-19T17:16:00.155Z,69.40
2022-12-19T17:18:32.103Z,69.84
2022-12-19T17:21:00.723Z,68.91
2022-12-19T17:23:30.649Z,69.65
2022-12-19T17:26:01.196Z,68.31
2022-12-19T17:28:30.732Z,68.85
2022-12-19T17:31:08.004Z,67.62
2022-12-19T17:33:42.176Z,67.64
2022-12-19T17:36:18.298Z,67.01
2022-12-19T17:38:49.820Z,67.00
2022-12-19T17:41:19.874Z,69.06
2022-12-19T17:43:48.644Z,67.73
2022-12-19T17:46:19.489Z,65.16
2022-12-19T17:48:51.390Z,64.53
2022-12-19T17:51:22.073Z,67.01
2022-12-19T17:53:51.361Z,65.06
2022-12-19T17:56:22.310Z,65.04
2022-12-19T17:58:51.095Z,64.89
2022-12-19T18:01:24.449Z,63.30
2022-12-19T18:04:23.767Z,64.90
2022-12-19T18:06:54.395Z,64.71
2022-12-19T18:09:24.726Z,63.86
2022-12-19T18:11:54.962Z,64.78
2022-12-19T18:14:25.055Z,67.67
2022-12-19T18:16:53.978Z,67.89
2022-12-19T18:19:30.110Z,67.62
2022-12-19T18:21:59.198Z,65.22
2022-12-19T18:24:28.151Z,64.91
2022-12-19T18:26:58.319Z,64.79
2022-12-19T18:29:27.197Z,65.86
2022-12-19T18:31:59.522Z,66.41
2022-12-19T18:34:31.855Z,66.95
2022-12-19T18:37:00.670Z,66.39
2022-12-19T18:39:32.193Z,65.77
2022-12-19T18:42:03.298Z,64.56
2022-12-19T18:44:32.233Z,63.74
2022-12-19T18:47:01.356Z,62.65
2022-12-19T18:49:29.896Z,62.80
2022-12-19T18:52:04.078Z,63.12
2022-12-19T18:54:32.751Z,64.20
2022-12-19T18:57:03.042Z,63.92
2022-12-19T18:59:32.378Z,62.43
2022-12-19T19:02:00.883Z,62.55
2022-12-19T19:04:29.654Z,61.87
2022-12-19T19:06:58.022Z,62.72
2022-12-19T19:09:26.594Z,62.93
2022-12-19T19:12:06.864Z,64.45
2022-12-19T19:14:35.421Z,63.95
2022-12-19T19:17:05.755Z,64.17
2022-12-19T19:19:34.409Z,63.93
2022-12-19T19:22:03.015Z,64.89
2022-12-19T19:24:31.677Z,64.51
2022-12-19T19:27:00.091Z,64.27
2022-12-19T19:29:30.195Z,63.28
2022-12-19T19:31:59.183Z,64.20
2022-12-19T19:34:31.206Z,65.56
2022-12-19T19:37:03.816Z,66.39
2022-12-19T19:39:42.286Z,66.15
2022-12-19T19:42:11.384Z,63.89
2022-12-19T19:44:40.969Z,65.66
2022-12-19T19:47:09.489Z,66.06
2022-12-19T19:49:38.117Z,65.86
2022-12-19T19:52:06.628Z,65.44
2022-12-19T19:54:36.451Z,65.18
2022-12-19T19:57:05.113Z,65.59
2022-12-19T19:59:33.254Z,66.13
2022-12-19T20:02:03.241Z,66.10
2022-12-19T20:04:32.017Z,66.08
2022-12-19T20:07:00.254Z,65.40
2022-12-19T20:09:28.853Z,66.00
2022-12-19T20:11:57.027Z,64.20
2022-12-19T20:14:26.694Z,63.48
2022-12-19T20:16:55.668Z,64.75
2022-12-19T20:19:25.629Z,66.07
2022-12-19T20:21:54.271Z,64.84
2022-12-19T20:24:22.756Z,66.60
2022-12-19T20:26:51.200Z,67.26
2022-12-19T20:29:19.733Z,67.70
2022-12-19T20:31:48.325Z,67.10
2022-12-19T20:34:16.933Z,65.90
2022-12-19T20:36:46.512Z,65.05
2022-12-19T20:39:15.226Z,64.33
2022-12-19T20:41:43.752Z,64.66
2022-12-19T20:44:11.931Z,64.51
2022-12-19T20:46:40.585Z,65.20
2022-12-19T20:49:09.037Z,65.93
2022-12-19T20:51:37.994Z,65.57
2022-12-19T20:54:08.882Z,65.33
2022-12-19T20:56:37.403Z,65.78
2022-12-19T20:59:06.146Z,65.85
2022-12-19T21:01:34.893Z,64.42
2022-12-19T21:04:05.738Z,63.88
2022-12-19T21:06:34.797Z,63.57
2022-12-19T21:09:03.387Z,63.58
2022-12-19T21:11:33.504Z,65.31
2022-12-19T21:14:02.073Z,64.25
2022-12-19T21:16:31.171Z,64.57
2022-12-19T21:19:02.445Z,62.41
2022-12-19T21:21:31.441Z,61.22
2022-12-19T21:24:02.406Z,61.84
2022-12-19T21:26:32.533Z,61.98
2022-12-19T21:29:02.425Z,62.19
2022-12-19T21:31:31.947Z,61.57
2022-12-19T21:34:03.223Z,62.35
2022-12-19T21:36:32.388Z,63.09
2022-12-19T21:39:03.260Z,63.21
2022-12-19T21:41:34.171Z,62.32
2022-12-19T21:44:05.339Z,62.38
2022-12-19T21:46:34.796Z,61.62
2022-12-19T21:49:08.546Z,61.09
2022-12-19T21:51:37.319Z,61.78
2022-12-19T21:54:07.215Z,60.34
2022-12-19T21:56:41.523Z,60.67
2022-12-19T21:59:14.260Z,62.39
2022-12-19T22:01:43.949Z,61.32
2022-12-19T22:04:14.931Z,62.25
2022-12-19T22:06:43.397Z,61.78
2022-12-19T22:09:14.891Z,61.45
2022-12-19T22:11:45.512Z,59.99
2022-12-19T22:14:15.715Z,60.92
2022-12-19T22:16:44.692Z,60.38
2022-12-19T22:19:15.629Z,60.60
2022-12-19T22:21:44.807Z,61.39
2022-12-19T22:24:16.509Z,60.83
2022-12-19T22:26:46.569Z,61.11
2022-12-19T22:29:17.838Z,61.41
2022-12-19T22:31:49.679Z,59.96
2022-12-19T22:34:20.319Z,59.75
2022-12-19T22:36:50.035Z,61.67
2022-12-19T22:39:20.893Z,62.15
2022-12-19T22:41:51.328Z,63.09
2022-12-19T22:44:21.895Z,64.30
2022-12-19T22:46:51.299Z,62.04
2022-12-19T22:49:20.971Z,62.78
2022-12-19T22:51:50.096Z,62.88
2022-12-19T22:54:19.124Z,61.35
2022-12-19T22:56:50.637Z,61.44
2022-12-19T22:59:20.743Z,60.65
2022-12-19T23:01:49.597Z,61.57
2022-12-19T23:04:18.621Z,61.54
2022-12-19T23:06:47.309Z,62.72
2022-12-19T23:09:18.716Z,62.72
2022-12-19T23:11:49.506Z,63.71
2022-12-19T23:14:21.155Z,62.91
2022-12-19T23:16:50.220Z,63.60
2022-12-19T23:19:19.047Z,63.06
2022-12-19T23:21:48.328Z,61.71
2022-12-19T23:24:16.883Z,62.38
2022-12-19T23:26:45.664Z,62.34
2022-12-19T23:29:16.306Z,61.67
2022-12-19T23:31:48.047Z,62.31
2022-12-19T23:34:17.298Z,61.17
2022-12-19T23:37:10.669Z,62.24
2022-12-19T23:39:35.214Z,61.71
2022-12-19T23:42:03.484Z,62.16
2022-12-19T23:44:31.997Z,62.78
2022-12-19T23:47:03.900Z,63.16
2022-12-19T23:49:33.848Z,62.82
2022-12-19T23:52:02.492Z,63.01
2022-12-19T23:54:30.778Z,64.57
2022-12-19T23:56:59.283Z,63.74
2022-12-19T23:59:27.457Z,63.27
